MET'MAP v2.0
soon released !

Expected late october,
this new version will be
more efficient, smarter,
and hosted on a brand new
server x3 powerfull...
...and still free !


Not compatible ?
Try the mobile version !

LOG IN : | Subscribe | Disclaimer | Who is Orbifly ? |
ICAO code :

TAF - LFBM Mont-De-Marsan - 09 Apr 2020 03:46 UTC
Data Sources :     NOAA   


- Airport Elevation : 203 ft
- IATA code : XMJ
- No reported NOTAMs.


LFBM - Mont-De-Marsan

Latest METAR recorded : 2020/04/09 01:30 LFBM 090130Z AUTO 05003KT CAVOK 09/07 Q1021 NOSIG
NO TAF


MET'MAP, your aeronautical weather chart ! - Copyright ORBIFLY December 2007

Programming & Development : Alexandra Zaïnal
Co-Developer : Marc-Olivier Méhu
Technical & hardware support : Manuel Goepfert
Concept & Financing : Baudouin d'Aumeries